sensor_id;sensor_type;location;lat;lon;timestamp;P1;durP1;ratioP1;P2;durP2;ratioP2
26598;SDS011;14240;51.064;16.612;2024-03-02T00:00:21;164.60;;;79.70;;
26598;SDS011;14240;51.064;16.612;2024-03-02T00:02:50;174.77;;;80.00;;
26598;SDS011;14240;51.064;16.612;2024-03-02T00:05:17;158.10;;;77.50;;
26598;SDS011;14240;51.064;16.612;2024-03-02T00:07:44;165.45;;;77.75;;
26598;SDS011;14240;51.064;16.612;2024-03-02T00:10:11;175.30;;;81.20;;
26598;SDS011;14240;51.064;16.612;2024-03-02T00:12:41;167.98;;;79.65;;
26598;SDS011;14240;51.064;16.612;2024-03-02T00:15:34;165.77;;;80.35;;
26598;SDS011;14240;51.064;16.612;2024-03-02T00:18:02;159.93;;;79.65;;
26598;SDS011;14240;51.064;16.612;2024-03-02T00:20:29;170.63;;;78.93;;
26598;SDS011;14240;51.064;16.612;2024-03-02T00:23:05;170.68;;;84.97;;
26598;SDS011;14240;51.064;16.612;2024-03-02T00:25:39;168.52;;;82.10;;
26598;SDS011;14240;51.064;16.612;2024-03-02T00:33:37;180.32;;;86.55;;
26598;SDS011;14240;51.064;16.612;2024-03-02T00:36:08;178.05;;;84.28;;
26598;SDS011;14240;51.064;16.612;2024-03-02T00:38:40;181.70;;;84.60;;
26598;SDS011;14240;51.064;16.612;2024-03-02T00:41:12;181.48;;;86.45;;
26598;SDS011;14240;51.064;16.612;2024-03-02T00:43:43;174.63;;;82.20;;
26598;SDS011;14240;51.064;16.612;2024-03-02T00:46:10;173.07;;;80.00;;
26598;SDS011;14240;51.064;16.612;2024-03-02T00:48:37;182.40;;;83.05;;
26598;SDS011;14240;51.064;16.612;2024-03-02T00:51:04;189.93;;;88.85;;
26598;SDS011;14240;51.064;16.612;2024-03-02T00:53:31;188.95;;;88.68;;
26598;SDS011;14240;51.064;16.612;2024-03-02T00:56:00;190.55;;;89.13;;
26598;SDS011;14240;51.064;16.612;2024-03-02T00:58:26;186.82;;;88.68;;
26598;SDS011;14240;51.064;16.612;2024-03-02T01:00:52;183.32;;;90.32;;
26598;SDS011;14240;51.064;16.612;2024-03-02T01:03:18;193.55;;;90.03;;
26598;SDS011;14240;51.064;16.612;2024-03-02T01:05:44;185.25;;;90.43;;
26598;SDS011;14240;51.064;16.612;2024-03-02T01:08:10;187.98;;;88.45;;
26598;SDS011;14240;51.064;16.612;2024-03-02T01:10:36;184.68;;;86.13;;
26598;SDS011;14240;51.064;16.612;2024-03-02T01:13:01;189.60;;;90.28;;
26598;SDS011;14240;51.064;16.612;2024-03-02T01:15:27;193.60;;;91.28;;
26598;SDS011;14240;51.064;16.612;2024-03-02T01:17:53;183.00;;;89.43;;
26598;SDS011;14240;51.064;16.612;2024-03-02T01:20:19;189.30;;;88.22;;
26598;SDS011;14240;51.064;16.612;2024-03-02T01:22:45;199.27;;;89.88;;
26598;SDS011;14240;51.064;16.612;2024-03-02T01:25:10;194.52;;;90.30;;
26598;SDS011;14240;51.064;16.612;2024-03-02T01:27:36;187.73;;;89.85;;
26598;SDS011;14240;51.064;16.612;2024-03-02T01:30:02;185.88;;;89.65;;
26598;SDS011;14240;51.064;16.612;2024-03-02T01:32:28;182.43;;;89.15;;
26598;SDS011;14240;51.064;16.612;2024-03-02T01:34:54;179.68;;;90.53;;
26598;SDS011;14240;51.064;16.612;2024-03-02T01:37:20;191.40;;;88.65;;
26598;SDS011;14240;51.064;16.612;2024-03-02T01:39:46;187.27;;;90.97;;
26598;SDS011;14240;51.064;16.612;2024-03-02T01:42:11;180.05;;;87.30;;
26598;SDS011;14240;51.064;16.612;2024-03-02T01:44:37;182.50;;;87.28;;
26598;SDS011;14240;51.064;16.612;2024-03-02T01:47:03;184.23;;;88.13;;
26598;SDS011;14240;51.064;16.612;2024-03-02T01:49:28;186.00;;;90.10;;
26598;SDS011;14240;51.064;16.612;2024-03-02T01:51:54;182.48;;;90.40;;
26598;SDS011;14240;51.064;16.612;2024-03-02T01:54:20;192.05;;;88.85;;
26598;SDS011;14240;51.064;16.612;2024-03-02T01:56:45;197.30;;;90.95;;
26598;SDS011;14240;51.064;16.612;2024-03-02T01:59:11;189.25;;;91.57;;
26598;SDS011;14240;51.064;16.612;2024-03-02T02:01:38;196.65;;;92.18;;
26598;SDS011;14240;51.064;16.612;2024-03-02T02:04:04;185.13;;;89.65;;
26598;SDS011;14240;51.064;16.612;2024-03-02T02:06:31;194.43;;;89.10;;
26598;SDS011;14240;51.064;16.612;2024-03-02T02:08:57;192.98;;;90.82;;
26598;SDS011;14240;51.064;16.612;2024-03-02T02:11:24;195.80;;;88.63;;
26598;SDS011;14240;51.064;16.612;2024-03-02T02:13:50;199.85;;;91.35;;
26598;SDS011;14240;51.064;16.612;2024-03-02T02:16:15;188.07;;;89.18;;
26598;SDS011;14240;51.064;16.612;2024-03-02T02:18:41;184.93;;;86.28;;
26598;SDS011;14240;51.064;16.612;2024-03-02T02:21:07;190.57;;;89.78;;
26598;SDS011;14240;51.064;16.612;2024-03-02T02:23:33;187.50;;;88.30;;
26598;SDS011;14240;51.064;16.612;2024-03-02T02:25:59;181.95;;;85.45;;
26598;SDS011;14240;51.064;16.612;2024-03-02T02:28:24;176.45;;;82.05;;
26598;SDS011;14240;51.064;16.612;2024-03-02T02:30:50;182.30;;;84.47;;
26598;SDS011;14240;51.064;16.612;2024-03-02T02:33:16;178.65;;;83.75;;
26598;SDS011;14240;51.064;16.612;2024-03-02T02:35:41;173.85;;;85.72;;
26598;SDS011;14240;51.064;16.612;2024-03-02T02:38:07;177.48;;;83.90;;
26598;SDS011;14240;51.064;16.612;2024-03-02T02:40:33;173.90;;;82.72;;
26598;SDS011;14240;51.064;16.612;2024-03-02T02:42:59;175.18;;;81.30;;
26598;SDS011;14240;51.064;16.612;2024-03-02T02:45:24;175.40;;;82.32;;
26598;SDS011;14240;51.064;16.612;2024-03-02T02:47:50;179.52;;;79.97;;
26598;SDS011;14240;51.064;16.612;2024-03-02T02:50:16;172.30;;;81.75;;
26598;SDS011;14240;51.064;16.612;2024-03-02T02:52:42;179.95;;;83.82;;
26598;SDS011;14240;51.064;16.612;2024-03-02T02:55:09;186.85;;;87.93;;
26598;SDS011;14240;51.064;16.612;2024-03-02T02:57:36;186.70;;;87.65;;
26598;SDS011;14240;51.064;16.612;2024-03-02T03:02:39;178.25;;;80.43;;
26598;SDS011;14240;51.064;16.612;2024-03-02T03:05:09;188.45;;;83.35;;
26598;SDS011;14240;51.064;16.612;2024-03-02T03:07:36;196.43;;;85.28;;
26598;SDS011;14240;51.064;16.612;2024-03-02T03:12:31;170.85;;;83.53;;
26598;SDS011;14240;51.064;16.612;2024-03-02T03:14:57;188.13;;;85.80;;
26598;SDS011;14240;51.064;16.612;2024-03-02T03:17:23;182.63;;;83.13;;
26598;SDS011;14240;51.064;16.612;2024-03-02T03:19:50;175.60;;;83.28;;
26598;SDS011;14240;51.064;16.612;2024-03-02T03:22:15;178.13;;;84.07;;
26598;SDS011;14240;51.064;16.612;2024-03-02T03:24:41;192.65;;;82.90;;
26598;SDS011;14240;51.064;16.612;2024-03-02T03:27:07;184.40;;;83.43;;
26598;SDS011;14240;51.064;16.612;2024-03-02T03:29:34;177.18;;;83.63;;
26598;SDS011;14240;51.064;16.612;2024-03-02T03:32:01;185.02;;;84.82;;
26598;SDS011;14240;51.064;16.612;2024-03-02T03:34:28;190.75;;;83.95;;
26598;SDS011;14240;51.064;16.612;2024-03-02T03:36:54;186.88;;;84.75;;
26598;SDS011;14240;51.064;16.612;2024-03-02T03:39:20;198.48;;;85.68;;
26598;SDS011;14240;51.064;16.612;2024-03-02T03:41:45;184.05;;;82.07;;
26598;SDS011;14240;51.064;16.612;2024-03-02T03:44:11;205.48;;;89.03;;
26598;SDS011;14240;51.064;16.612;2024-03-02T03:46:37;210.55;;;92.00;;
26598;SDS011;14240;51.064;16.612;2024-03-02T03:49:03;207.80;;;87.97;;
26598;SDS011;14240;51.064;16.612;2024-03-02T03:51:29;198.30;;;86.88;;
26598;SDS011;14240;51.064;16.612;2024-03-02T03:53:55;214.93;;;87.10;;
26598;SDS011;14240;51.064;16.612;2024-03-02T03:56:21;204.90;;;89.68;;
26598;SDS011;14240;51.064;16.612;2024-03-02T03:58:47;213.27;;;93.70;;
26598;SDS011;14240;51.064;16.612;2024-03-02T04:01:12;205.50;;;92.22;;
26598;SDS011;14240;51.064;16.612;2024-03-02T04:03:38;208.80;;;92.22;;
26598;SDS011;14240;51.064;16.612;2024-03-02T04:06:04;221.23;;;93.18;;
26598;SDS011;14240;51.064;16.612;2024-03-02T04:08:30;207.80;;;92.55;;
26598;SDS011;14240;51.064;16.612;2024-03-02T04:10:55;220.00;;;94.70;;
26598;SDS011;14240;51.064;16.612;2024-03-02T04:13:21;224.55;;;94.82;;
26598;SDS011;14240;51.064;16.612;2024-03-02T04:15:47;216.90;;;94.78;;
26598;SDS011;14240;51.064;16.612;2024-03-02T04:18:12;217.05;;;92.57;;
26598;SDS011;14240;51.064;16.612;2024-03-02T04:20:38;212.20;;;91.68;;
26598;SDS011;14240;51.064;16.612;2024-03-02T04:23:04;206.35;;;92.45;;
26598;SDS011;14240;51.064;16.612;2024-03-02T04:25:30;224.38;;;91.13;;
26598;SDS011;14240;51.064;16.612;2024-03-02T04:27:55;216.25;;;92.15;;
26598;SDS011;14240;51.064;16.612;2024-03-02T04:30:21;221.73;;;94.85;;
26598;SDS011;14240;51.064;16.612;2024-03-02T04:32:47;227.00;;;95.60;;
26598;SDS011;14240;51.064;16.612;2024-03-02T04:35:13;210.23;;;91.93;;
26598;SDS011;14240;51.064;16.612;2024-03-02T04:37:39;217.43;;;91.78;;
26598;SDS011;14240;51.064;16.612;2024-03-02T04:40:05;204.35;;;92.20;;
26598;SDS011;14240;51.064;16.612;2024-03-02T04:42:34;200.65;;;89.13;;
26598;SDS011;14240;51.064;16.612;2024-03-02T04:45:00;208.48;;;93.95;;
26598;SDS011;14240;51.064;16.612;2024-03-02T04:47:26;194.25;;;86.00;;
26598;SDS011;14240;51.064;16.612;2024-03-02T04:49:52;208.93;;;92.18;;
26598;SDS011;14240;51.064;16.612;2024-03-02T04:52:18;200.50;;;87.22;;
26598;SDS011;14240;51.064;16.612;2024-03-02T04:54:44;198.48;;;88.03;;
26598;SDS011;14240;51.064;16.612;2024-03-02T04:57:28;191.43;;;84.72;;
26598;SDS011;14240;51.064;16.612;2024-03-02T04:59:54;197.73;;;87.32;;
26598;SDS011;14240;51.064;16.612;2024-03-02T05:02:19;185.48;;;85.95;;
26598;SDS011;14240;51.064;16.612;2024-03-02T05:04:45;186.43;;;84.22;;
26598;SDS011;14240;51.064;16.612;2024-03-02T05:07:11;196.15;;;85.85;;
26598;SDS011;14240;51.064;16.612;2024-03-02T05:09:36;189.38;;;85.60;;
26598;SDS011;14240;51.064;16.612;2024-03-02T05:12:02;191.88;;;86.25;;
26598;SDS011;14240;51.064;16.612;2024-03-02T05:14:46;201.30;;;87.60;;
26598;SDS011;14240;51.064;16.612;2024-03-02T05:17:12;192.82;;;83.90;;
26598;SDS011;14240;51.064;16.612;2024-03-02T05:19:37;186.73;;;85.80;;
26598;SDS011;14240;51.064;16.612;2024-03-02T05:22:03;189.82;;;88.93;;
26598;SDS011;14240;51.064;16.612;2024-03-02T05:24:29;206.15;;;91.20;;
26598;SDS011;14240;51.064;16.612;2024-03-02T05:26:55;200.07;;;90.82;;
26598;SDS011;14240;51.064;16.612;2024-03-02T05:29:21;207.82;;;88.65;;
26598;SDS011;14240;51.064;16.612;2024-03-02T05:31:47;196.23;;;90.40;;
26598;SDS011;14240;51.064;16.612;2024-03-02T05:34:13;199.98;;;90.88;;
26598;SDS011;14240;51.064;16.612;2024-03-02T05:36:38;193.98;;;89.28;;
26598;SDS011;14240;51.064;16.612;2024-03-02T05:39:05;185.15;;;86.78;;
26598;SDS011;14240;51.064;16.612;2024-03-02T05:41:34;191.43;;;85.45;;
26598;SDS011;14240;51.064;16.612;2024-03-02T05:44:00;180.10;;;82.43;;
26598;SDS011;14240;51.064;16.612;2024-03-02T05:46:26;184.45;;;80.95;;
26598;SDS011;14240;51.064;16.612;2024-03-02T05:48:52;178.68;;;82.35;;
26598;SDS011;14240;51.064;16.612;2024-03-02T05:51:18;198.75;;;86.45;;
26598;SDS011;14240;51.064;16.612;2024-03-02T05:53:44;184.60;;;83.32;;
26598;SDS011;14240;51.064;16.612;2024-03-02T05:56:10;187.93;;;82.53;;
26598;SDS011;14240;51.064;16.612;2024-03-02T05:58:37;173.90;;;80.30;;
26598;SDS011;14240;51.064;16.612;2024-03-02T06:01:13;188.07;;;81.38;;
26598;SDS011;14240;51.064;16.612;2024-03-02T06:03:38;187.68;;;80.50;;
26598;SDS011;14240;51.064;16.612;2024-03-02T06:06:04;183.82;;;80.32;;
26598;SDS011;14240;51.064;16.612;2024-03-02T06:08:30;181.20;;;81.85;;
26598;SDS011;14240;51.064;16.612;2024-03-02T06:10:56;176.05;;;80.68;;
26598;SDS011;14240;51.064;16.612;2024-03-02T06:13:22;177.52;;;79.40;;
26598;SDS011;14240;51.064;16.612;2024-03-02T06:15:48;185.85;;;79.97;;
26598;SDS011;14240;51.064;16.612;2024-03-02T06:18:13;179.57;;;78.07;;
26598;SDS011;14240;51.064;16.612;2024-03-02T06:20:39;179.48;;;81.70;;
26598;SDS011;14240;51.064;16.612;2024-03-02T06:23:05;162.77;;;80.47;;
26598;SDS011;14240;51.064;16.612;2024-03-02T06:25:31;184.05;;;92.32;;
26598;SDS011;14240;51.064;16.612;2024-03-02T06:27:57;178.48;;;87.75;;
26598;SDS011;14240;51.064;16.612;2024-03-02T06:30:23;170.13;;;82.07;;
26598;SDS011;14240;51.064;16.612;2024-03-02T06:32:48;188.50;;;86.07;;
26598;SDS011;14240;51.064;16.612;2024-03-02T06:35:14;181.63;;;82.32;;
26598;SDS011;14240;51.064;16.612;2024-03-02T06:37:40;184.32;;;83.00;;
26598;SDS011;14240;51.064;16.612;2024-03-02T06:40:06;170.65;;;79.95;;
26598;SDS011;14240;51.064;16.612;2024-03-02T06:42:33;175.85;;;79.15;;
26598;SDS011;14240;51.064;16.612;2024-03-02T06:44:59;174.88;;;81.05;;
26598;SDS011;14240;51.064;16.612;2024-03-02T06:47:25;168.02;;;79.22;;
26598;SDS011;14240;51.064;16.612;2024-03-02T06:49:51;180.32;;;88.38;;
26598;SDS011;14240;51.064;16.612;2024-03-02T06:52:18;183.50;;;87.00;;
26598;SDS011;14240;51.064;16.612;2024-03-02T06:54:43;179.85;;;84.95;;
26598;SDS011;14240;51.064;16.612;2024-03-02T06:57:09;172.15;;;80.55;;
26598;SDS011;14240;51.064;16.612;2024-03-02T06:59:35;167.23;;;79.70;;
26598;SDS011;14240;51.064;16.612;2024-03-02T07:02:00;162.88;;;75.18;;
26598;SDS011;14240;51.064;16.612;2024-03-02T07:04:27;167.20;;;76.32;;
26598;SDS011;14240;51.064;16.612;2024-03-02T07:06:52;162.55;;;74.90;;
26598;SDS011;14240;51.064;16.612;2024-03-02T07:09:18;165.77;;;77.57;;
26598;SDS011;14240;51.064;16.612;2024-03-02T07:11:47;163.13;;;74.57;;
26598;SDS011;14240;51.064;16.612;2024-03-02T07:14:13;156.48;;;73.95;;
26598;SDS011;14240;51.064;16.612;2024-03-02T07:16:39;155.50;;;74.00;;
26598;SDS011;14240;51.064;16.612;2024-03-02T07:19:05;155.82;;;74.85;;
26598;SDS011;14240;51.064;16.612;2024-03-02T07:21:31;146.68;;;72.40;;
26598;SDS011;14240;51.064;16.612;2024-03-02T07:23:58;141.75;;;70.05;;
26598;SDS011;14240;51.064;16.612;2024-03-02T07:26:24;144.15;;;69.00;;
26598;SDS011;14240;51.064;16.612;2024-03-02T07:28:50;137.73;;;68.68;;
26598;SDS011;14240;51.064;16.612;2024-03-02T07:31:16;133.45;;;66.03;;
26598;SDS011;14240;51.064;16.612;2024-03-02T07:33:45;125.88;;;63.63;;
26598;SDS011;14240;51.064;16.612;2024-03-02T07:36:11;121.13;;;61.35;;
26598;SDS011;14240;51.064;16.612;2024-03-02T07:38:37;111.82;;;59.53;;
26598;SDS011;14240;51.064;16.612;2024-03-02T07:41:03;114.35;;;58.88;;
26598;SDS011;14240;51.064;16.612;2024-03-02T07:43:29;104.93;;;56.08;;
26598;SDS011;14240;51.064;16.612;2024-03-02T07:45:58;100.80;;;53.92;;
26598;SDS011;14240;51.064;16.612;2024-03-02T07:48:23;98.95;;;51.58;;
26598;SDS011;14240;51.064;16.612;2024-03-02T07:50:50;145.35;;;79.25;;
26598;SDS011;14240;51.064;16.612;2024-03-02T07:53:16;90.63;;;50.97;;
26598;SDS011;14240;51.064;16.612;2024-03-02T07:55:41;87.78;;;48.22;;
26598;SDS011;14240;51.064;16.612;2024-03-02T07:58:07;88.57;;;50.97;;
26598;SDS011;14240;51.064;16.612;2024-03-02T08:00:33;78.60;;;44.88;;
26598;SDS011;14240;51.064;16.612;2024-03-02T08:03:00;78.45;;;44.70;;
26598;SDS011;14240;51.064;16.612;2024-03-02T08:05:26;84.75;;;50.42;;
26598;SDS011;14240;51.064;16.612;2024-03-02T08:07:52;81.20;;;47.47;;
26598;SDS011;14240;51.064;16.612;2024-03-02T08:10:18;80.90;;;45.45;;
26598;SDS011;14240;51.064;16.612;2024-03-02T08:12:44;81.05;;;44.70;;
26598;SDS011;14240;51.064;16.612;2024-03-02T08:15:10;77.03;;;43.75;;
26598;SDS011;14240;51.064;16.612;2024-03-02T08:17:38;91.88;;;51.70;;
26598;SDS011;14240;51.064;16.612;2024-03-02T08:20:10;77.07;;;42.03;;
26598;SDS011;14240;51.064;16.612;2024-03-02T08:22:36;75.60;;;43.53;;
26598;SDS011;14240;51.064;16.612;2024-03-02T08:25:02;79.68;;;44.40;;
26598;SDS011;14240;51.064;16.612;2024-03-02T08:27:28;82.78;;;44.92;;
26598;SDS011;14240;51.064;16.612;2024-03-02T08:29:54;79.70;;;44.72;;
26598;SDS011;14240;51.064;16.612;2024-03-02T08:32:20;77.57;;;45.05;;
26598;SDS011;14240;51.064;16.612;2024-03-02T08:34:45;75.78;;;42.25;;
26598;SDS011;14240;51.064;16.612;2024-03-02T08:37:11;71.93;;;42.22;;
26598;SDS011;14240;51.064;16.612;2024-03-02T08:39:37;69.50;;;39.42;;
26598;SDS011;14240;51.064;16.612;2024-03-02T08:42:02;65.82;;;36.92;;
26598;SDS011;14240;51.064;16.612;2024-03-02T08:44:29;59.35;;;33.28;;
26598;SDS011;14240;51.064;16.612;2024-03-02T08:46:56;48.83;;;29.08;;
26598;SDS011;14240;51.064;16.612;2024-03-02T08:49:21;49.13;;;29.70;;
26598;SDS011;14240;51.064;16.612;2024-03-02T08:51:47;48.92;;;27.65;;
26598;SDS011;14240;51.064;16.612;2024-03-02T08:54:20;44.65;;;27.65;;
26598;SDS011;14240;51.064;16.612;2024-03-02T08:56:49;45.05;;;24.63;;
26598;SDS011;14240;51.064;16.612;2024-03-02T08:59:15;48.45;;;25.50;;
26598;SDS011;14240;51.064;16.612;2024-03-02T09:01:41;37.95;;;23.95;;
26598;SDS011;14240;51.064;16.612;2024-03-02T09:04:08;40.53;;;23.05;;
26598;SDS011;14240;51.064;16.612;2024-03-02T09:06:34;40.53;;;22.92;;
26598;SDS011;14240;51.064;16.612;2024-03-02T09:09:00;39.05;;;23.05;;
26598;SDS011;14240;51.064;16.612;2024-03-02T09:11:26;43.25;;;23.70;;
26598;SDS011;14240;51.064;16.612;2024-03-02T09:13:52;37.92;;;21.60;;
26598;SDS011;14240;51.064;16.612;2024-03-02T09:16:18;37.25;;;22.42;;
26598;SDS011;14240;51.064;16.612;2024-03-02T09:18:44;41.88;;;22.30;;
26598;SDS011;14240;51.064;16.612;2024-03-02T09:21:10;41.78;;;24.90;;
26598;SDS011;14240;51.064;16.612;2024-03-02T09:23:36;40.65;;;24.70;;
26598;SDS011;14240;51.064;16.612;2024-03-02T09:26:01;46.58;;;27.88;;
26598;SDS011;14240;51.064;16.612;2024-03-02T09:28:28;40.00;;;24.88;;
26598;SDS011;14240;51.064;16.612;2024-03-02T09:30:54;48.03;;;25.15;;
26598;SDS011;14240;51.064;16.612;2024-03-02T09:33:19;45.53;;;24.83;;
26598;SDS011;14240;51.064;16.612;2024-03-02T09:35:45;46.53;;;26.08;;
26598;SDS011;14240;51.064;16.612;2024-03-02T09:38:11;48.25;;;26.92;;
26598;SDS011;14240;51.064;16.612;2024-03-02T09:40:37;43.38;;;26.90;;
26598;SDS011;14240;51.064;16.612;2024-03-02T09:43:02;46.90;;;26.88;;
26598;SDS011;14240;51.064;16.612;2024-03-02T09:45:29;50.47;;;28.42;;
26598;SDS011;14240;51.064;16.612;2024-03-02T09:47:55;50.75;;;28.90;;
26598;SDS011;14240;51.064;16.612;2024-03-02T09:50:21;48.70;;;28.42;;
26598;SDS011;14240;51.064;16.612;2024-03-02T09:52:48;74.63;;;30.50;;
26598;SDS011;14240;51.064;16.612;2024-03-02T09:57:42;57.80;;;32.60;;
26598;SDS011;14240;51.064;16.612;2024-03-02T10:00:08;59.38;;;33.40;;
26598;SDS011;14240;51.064;16.612;2024-03-02T10:02:34;60.08;;;33.78;;
26598;SDS011;14240;51.064;16.612;2024-03-02T10:04:59;59.17;;;33.40;;
26598;SDS011;14240;51.064;16.612;2024-03-02T10:07:25;58.45;;;33.13;;
26598;SDS011;14240;51.064;16.612;2024-03-02T10:09:51;104.72;;;32.67;;
26598;SDS011;14240;51.064;16.612;2024-03-02T10:12:17;72.35;;;32.22;;
26598;SDS011;14240;51.064;16.612;2024-03-02T10:14:44;56.08;;;31.42;;
26598;SDS011;14240;51.064;16.612;2024-03-02T10:17:11;51.08;;;31.15;;
26598;SDS011;14240;51.064;16.612;2024-03-02T10:19:38;50.78;;;30.40;;
26598;SDS011;14240;51.064;16.612;2024-03-02T10:22:05;50.43;;;30.37;;
26598;SDS011;14240;51.064;16.612;2024-03-02T10:29:48;51.00;;;29.33;;
26598;SDS011;14240;51.064;16.612;2024-03-02T10:32:15;52.22;;;30.10;;
26598;SDS011;14240;51.064;16.612;2024-03-02T10:34:42;54.97;;;30.70;;
26598;SDS011;14240;51.064;16.612;2024-03-02T10:37:11;45.28;;;27.77;;
26598;SDS011;14240;51.064;16.612;2024-03-02T10:39:37;47.63;;;29.77;;
26598;SDS011;14240;51.064;16.612;2024-03-02T10:42:05;51.27;;;29.63;;
26598;SDS011;14240;51.064;16.612;2024-03-02T10:44:31;50.80;;;29.65;;
26598;SDS011;14240;51.064;16.612;2024-03-02T10:47:01;50.58;;;29.92;;
26598;SDS011;14240;51.064;16.612;2024-03-02T10:49:29;48.53;;;28.52;;
26598;SDS011;14240;51.064;16.612;2024-03-02T10:51:57;50.55;;;29.42;;
26598;SDS011;14240;51.064;16.612;2024-03-02T10:54:23;53.37;;;30.27;;
26598;SDS011;14240;51.064;16.612;2024-03-02T10:56:52;53.58;;;28.67;;
26598;SDS011;14240;51.064;16.612;2024-03-02T11:02:18;51.20;;;27.30;;
26598;SDS011;14240;51.064;16.612;2024-03-02T11:04:46;59.83;;;30.17;;
26598;SDS011;14240;51.064;16.612;2024-03-02T11:07:15;52.53;;;28.77;;
26598;SDS011;14240;51.064;16.612;2024-03-02T11:09:49;50.40;;;28.58;;
26598;SDS011;14240;51.064;16.612;2024-03-02T11:12:29;47.38;;;27.40;;
26598;SDS011;14240;51.064;16.612;2024-03-02T11:15:01;52.22;;;28.10;;
26598;SDS011;14240;51.064;16.612;2024-03-02T11:17:34;52.78;;;28.33;;
26598;SDS011;14240;51.064;16.612;2024-03-02T11:19:59;52.22;;;29.52;;
26598;SDS011;14240;51.064;16.612;2024-03-02T11:22:26;54.78;;;30.92;;
26598;SDS011;14240;51.064;16.612;2024-03-02T11:24:52;47.13;;;29.23;;
26598;SDS011;14240;51.064;16.612;2024-03-02T11:32:59;57.97;;;30.27;;
26598;SDS011;14240;51.064;16.612;2024-03-02T11:35:30;53.03;;;31.35;;
26598;SDS011;14240;51.064;16.612;2024-03-02T11:37:56;55.05;;;32.28;;
26598;SDS011;14240;51.064;16.612;2024-03-02T11:40:30;60.40;;;33.03;;
26598;SDS011;14240;51.064;16.612;2024-03-02T11:42:56;55.42;;;32.90;;
26598;SDS011;14240;51.064;16.612;2024-03-02T11:47:50;51.00;;;30.90;;
26598;SDS011;14240;51.064;16.612;2024-03-02T11:50:35;56.30;;;30.42;;
26598;SDS011;14240;51.064;16.612;2024-03-02T11:53:06;57.63;;;31.02;;
26598;SDS011;14240;51.064;16.612;2024-03-02T11:55:36;59.95;;;31.17;;
26598;SDS011;14240;51.064;16.612;2024-03-02T11:58:03;55.42;;;31.52;;
26598;SDS011;14240;51.064;16.612;2024-03-02T12:00:29;51.15;;;29.10;;
26598;SDS011;14240;51.064;16.612;2024-03-02T12:05:32;49.53;;;27.33;;
26598;SDS011;14240;51.064;16.612;2024-03-02T12:07:59;51.83;;;28.65;;
26598;SDS011;14240;51.064;16.612;2024-03-02T12:10:25;57.53;;;29.38;;
26598;SDS011;14240;51.064;16.612;2024-03-02T12:12:55;55.47;;;30.65;;
26598;SDS011;14240;51.064;16.612;2024-03-02T12:15:25;48.17;;;29.02;;
26598;SDS011;14240;51.064;16.612;2024-03-02T12:17:56;48.05;;;28.67;;
26598;SDS011;14240;51.064;16.612;2024-03-02T12:20:26;48.80;;;26.30;;
26598;SDS011;14240;51.064;16.612;2024-03-02T12:22:54;46.30;;;27.63;;
26598;SDS011;14240;51.064;16.612;2024-03-02T12:25:22;47.80;;;26.73;;
26598;SDS011;14240;51.064;16.612;2024-03-02T12:27:49;82.88;;;51.90;;
26598;SDS011;14240;51.064;16.612;2024-03-02T12:30:16;59.83;;;32.78;;
26598;SDS011;14240;51.064;16.612;2024-03-02T12:32:43;48.45;;;27.30;;
26598;SDS011;14240;51.064;16.612;2024-03-02T12:35:12;57.38;;;28.17;;
26598;SDS011;14240;51.064;16.612;2024-03-02T12:37:42;50.58;;;27.02;;
26598;SDS011;14240;51.064;16.612;2024-03-02T12:40:13;53.72;;;28.80;;
26598;SDS011;14240;51.064;16.612;2024-03-02T12:42:39;47.60;;;27.15;;
26598;SDS011;14240;51.064;16.612;2024-03-02T12:45:09;52.67;;;29.25;;
26598;SDS011;14240;51.064;16.612;2024-03-02T12:47:36;50.05;;;29.10;;
26598;SDS011;14240;51.064;16.612;2024-03-02T12:50:03;47.25;;;27.35;;
26598;SDS011;14240;51.064;16.612;2024-03-02T12:52:30;48.30;;;26.42;;
26598;SDS011;14240;51.064;16.612;2024-03-02T12:54:58;44.45;;;25.15;;
26598;SDS011;14240;51.064;16.612;2024-03-02T12:57:31;51.93;;;26.77;;
26598;SDS011;14240;51.064;16.612;2024-03-02T13:00:05;48.95;;;26.65;;
26598;SDS011;14240;51.064;16.612;2024-03-02T13:02:34;54.40;;;27.52;;
26598;SDS011;14240;51.064;16.612;2024-03-02T13:05:01;47.43;;;26.57;;
26598;SDS011;14240;51.064;16.612;2024-03-02T13:07:28;50.65;;;28.10;;
26598;SDS011;14240;51.064;16.612;2024-03-02T13:09:54;50.53;;;29.02;;
26598;SDS011;14240;51.064;16.612;2024-03-02T13:12:22;46.13;;;26.10;;
26598;SDS011;14240;51.064;16.612;2024-03-02T13:14:49;46.80;;;26.10;;
26598;SDS011;14240;51.064;16.612;2024-03-02T13:19:50;45.90;;;25.38;;
26598;SDS011;14240;51.064;16.612;2024-03-02T13:22:20;46.50;;;26.90;;
26598;SDS011;14240;51.064;16.612;2024-03-02T13:24:46;49.70;;;27.55;;
26598;SDS011;14240;51.064;16.612;2024-03-02T13:27:13;46.05;;;27.10;;
26598;SDS011;14240;51.064;16.612;2024-03-02T13:29:39;42.17;;;25.65;;
26598;SDS011;14240;51.064;16.612;2024-03-02T13:32:05;44.35;;;25.50;;
26598;SDS011;14240;51.064;16.612;2024-03-02T13:34:30;50.97;;;25.88;;
26598;SDS011;14240;51.064;16.612;2024-03-02T13:36:56;45.13;;;24.45;;
26598;SDS011;14240;51.064;16.612;2024-03-02T13:39:22;45.95;;;25.80;;
26598;SDS011;14240;51.064;16.612;2024-03-02T13:41:48;40.85;;;24.25;;
26598;SDS011;14240;51.064;16.612;2024-03-02T13:44:21;37.90;;;22.80;;
26598;SDS011;14240;51.064;16.612;2024-03-02T13:46:47;43.70;;;23.13;;
26598;SDS011;14240;51.064;16.612;2024-03-02T13:49:13;42.55;;;21.25;;
26598;SDS011;14240;51.064;16.612;2024-03-02T13:51:39;36.38;;;21.85;;
26598;SDS011;14240;51.064;16.612;2024-03-02T13:54:05;38.90;;;20.65;;
26598;SDS011;14240;51.064;16.612;2024-03-02T13:56:31;31.83;;;19.88;;
26598;SDS011;14240;51.064;16.612;2024-03-02T13:58:57;33.55;;;20.17;;
26598;SDS011;14240;51.064;16.612;2024-03-02T14:01:24;41.30;;;23.73;;
26598;SDS011;14240;51.064;16.612;2024-03-02T14:03:50;36.25;;;20.58;;
26598;SDS011;14240;51.064;16.612;2024-03-02T14:06:16;38.55;;;22.10;;
26598;SDS011;14240;51.064;16.612;2024-03-02T14:08:42;39.35;;;20.15;;
26598;SDS011;14240;51.064;16.612;2024-03-02T14:11:09;51.88;;;23.10;;
26598;SDS011;14240;51.064;16.612;2024-03-02T14:13:40;30.65;;;18.92;;
26598;SDS011;14240;51.064;16.612;2024-03-02T14:16:13;56.33;;;29.75;;
26598;SDS011;14240;51.064;16.612;2024-03-02T14:18:39;32.05;;;20.15;;
26598;SDS011;14240;51.064;16.612;2024-03-02T14:21:04;37.47;;;22.33;;
26598;SDS011;14240;51.064;16.612;2024-03-02T14:23:30;38.58;;;20.98;;
26598;SDS011;14240;51.064;16.612;2024-03-02T14:25:56;33.80;;;19.83;;
26598;SDS011;14240;51.064;16.612;2024-03-02T14:28:24;41.67;;;22.95;;
26598;SDS011;14240;51.064;16.612;2024-03-02T14:30:50;53.30;;;28.05;;
26598;SDS011;14240;51.064;16.612;2024-03-02T14:33:15;65.03;;;34.22;;